Time;durP1;ratioP1;P1;durP2;ratioP2;P2;SDS_P1;SDS_P2;PMS_P1;PMS_P2;Temp;Humidity;BMP_temperature;BMP_pressure;BME280_temperature;BME280_humidity;BME280_pressure;Samples;Min_cycle;Max_cycle;Signal;HPM_P1;HPM_P2
2024/01/10 00:00:18;;;;;;;94.97;37.75;;;;;;;;;;1034426;28;20099;-62
2024/01/10 00:01:08;;;;;;;95.38;36.38;;;;;;;;;;1032600;28;20127;-63
2024/01/10 00:01:49;;;;;;;82.35;34.03;;;;;;;;;;1034006;28;20814;-63
2024/01/10 00:02:20;;;;;;;97.00;36.00;;;;;;;;;;1034012;28;20833;-62
2024/01/10 00:02:50;;;;;;;87.55;35.15;;;;;;;;;;1034573;28;20054;-63
2024/01/10 00:03:21;;;;;;;88.00;35.83;;;;;;;;;;1036868;28;20461;-63
2024/01/10 00:03:52;;;;;;;95.25;36.55;;;;;;;;;;1037184;28;20061;-63
2024/01/10 00:04:22;;;;;;;93.20;36.05;;;;;;;;;;1037759;28;20053;-62
2024/01/10 00:04:53;;;;;;;90.63;35.08;;;;;;;;;;1036172;28;20057;-63
2024/01/10 00:05:23;;;;;;;103.70;38.55;;;;;;;;;;1033265;28;20064;-63
2024/01/10 00:05:54;;;;;;;97.70;39.50;;;;;;;;;;1034060;28;20089;-63
2024/01/10 00:06:25;;;;;;;100.00;36.97;;;;;;;;;;1034732;28;20053;-63
2024/01/10 00:06:55;;;;;;;95.70;36.63;;;;;;;;;;1033995;28;20050;-63
2024/01/10 00:07:26;;;;;;;95.80;36.15;;;;;;;;;;1033916;28;20050;-63
2024/01/10 00:07:56;;;;;;;90.25;33.20;;;;;;;;;;1033997;28;20773;-63
2024/01/10 00:08:27;;;;;;;90.25;35.63;;;;;;;;;;1034213;28;20570;-63
2024/01/10 00:08:57;;;;;;;94.85;35.75;;;;;;;;;;1034273;28;20049;-63
2024/01/10 00:09:28;;;;;;;94.50;37.10;;;;;;;;;;1034803;28;20065;-63
2024/01/10 00:10:01;;;;;;;91.72;35.20;;;;;;;;;;1032544;28;20049;-63
2024/01/10 00:10:31;;;;;;;89.90;35.13;;;;;;;;;;1032972;28;20042;-63
2024/01/10 00:11:03;;;;;;;96.18;37.08;;;;;;;;;;1031767;28;20073;-62
2024/01/10 00:11:33;;;;;;;93.05;37.30;;;;;;;;;;1034347;28;20478;-63
2024/01/10 00:12:04;;;;;;;105.00;36.67;;;;;;;;;;1033198;28;20124;-62
2024/01/10 00:12:36;;;;;;;85.88;34.00;;;;;;;;;;1033921;28;20057;-63
2024/01/10 00:13:07;;;;;;;102.70;37.47;;;;;;;;;;1033639;28;20046;-63
2024/01/10 00:13:37;;;;;;;98.05;37.75;;;;;;;;;;1033651;28;20050;-63
2024/01/10 00:14:09;;;;;;;87.03;36.70;;;;;;;;;;1031613;28;20067;-63
2024/01/10 00:14:39;;;;;;;92.55;35.33;;;;;;;;;;1033481;28;20053;-63
2024/01/10 00:15:10;;;;;;;100.68;36.75;;;;;;;;;;1032159;28;20054;-62
2024/01/10 00:15:40;;;;;;;91.68;35.15;;;;;;;;;;1031525;28;20050;-63
2024/01/10 00:16:14;;;;;;;91.45;35.33;;;;;;;;;;1032014;28;20096;-62
2024/01/10 00:16:45;;;;;;;93.78;35.42;;;;;;;;;;1033241;28;20064;-63
2024/01/10 00:17:16;;;;;;;80.95;35.25;;;;;;;;;;1034844;28;20052;-62
2024/01/10 00:17:46;;;;;;;97.22;37.15;;;;;;;;;;1033086;28;20053;-63
2024/01/10 00:18:17;;;;;;;95.25;36.35;;;;;;;;;;1031974;28;20060;-63
2024/01/10 00:18:47;;;;;;;96.40;37.75;;;;;;;;;;1033639;28;20046;-62
2024/01/10 00:19:18;;;;;;;95.70;36.55;;;;;;;;;;1034384;28;20053;-63
2024/01/10 00:19:48;;;;;;;85.78;35.58;;;;;;;;;;1033241;28;20049;-63
2024/01/10 00:20:19;;;;;;;102.47;36.72;;;;;;;;;;1032613;28;20061;-62
2024/01/10 00:20:49;;;;;;;94.25;36.58;;;;;;;;;;1033059;28;20050;-63
2024/01/10 00:21:20;;;;;;;89.28;36.78;;;;;;;;;;1034311;28;20555;-63
2024/01/10 00:21:50;;;;;;;81.32;34.63;;;;;;;;;;1033692;28;20217;-62
2024/01/10 00:22:21;;;;;;;85.32;35.17;;;;;;;;;;1033927;28;20058;-63
2024/01/10 00:22:51;;;;;;;99.93;36.95;;;;;;;;;;1034132;28;20137;-63
2024/01/10 00:23:22;;;;;;;90.38;34.03;;;;;;;;;;1034060;28;20569;-63
2024/01/10 00:23:53;;;;;;;97.03;34.80;;;;;;;;;;1032548;28;20049;-62
2024/01/10 00:24:23;;;;;;;91.68;35.13;;;;;;;;;;1034386;28;20045;-63
2024/01/10 00:24:54;;;;;;;99.05;33.95;;;;;;;;;;1033686;28;20046;-62
2024/01/10 00:25:24;;;;;;;88.28;33.05;;;;;;;;;;1034054;28;20042;-62
2024/01/10 00:25:55;;;;;;;88.47;34.88;;;;;;;;;;1032199;28;20052;-63
2024/01/10 00:26:25;;;;;;;89.80;36.00;;;;;;;;;;1034376;28;20049;-63
2024/01/10 00:26:56;;;;;;;89.57;35.05;;;;;;;;;;1033962;28;20053;-62
2024/01/10 00:27:26;;;;;;;89.18;34.95;;;;;;;;;;1034584;28;20418;-63
2024/01/10 00:27:57;;;;;;;87.75;35.10;;;;;;;;;;1031989;28;20069;-63
2024/01/10 00:28:27;;;;;;;86.72;35.63;;;;;;;;;;1033723;28;20053;-62
2024/01/10 00:28:58;;;;;;;87.28;33.78;;;;;;;;;;1032612;28;20077;-62
2024/01/10 00:29:28;;;;;;;100.95;36.58;;;;;;;;;;1034272;28;20073;-63
2024/01/10 00:29:59;;;;;;;89.28;34.58;;;;;;;;;;1033258;28;20104;-62
2024/01/10 00:30:29;;;;;;;96.88;36.42;;;;;;;;;;1033843;28;20074;-63
2024/01/10 00:31:00;;;;;;;96.10;35.30;;;;;;;;;;1032385;28;20529;-63
2024/01/10 00:31:31;;;;;;;101.13;35.42;;;;;;;;;;1031775;28;20042;-63
2024/01/10 00:32:01;;;;;;;87.05;35.00;;;;;;;;;;1034140;28;20489;-62
2024/01/10 00:32:32;;;;;;;87.55;33.63;;;;;;;;;;1034403;28;20417;-63
2024/01/10 00:33:02;;;;;;;84.13;34.20;;;;;;;;;;1032414;28;20441;-63
2024/01/10 00:33:33;;;;;;;87.80;35.22;;;;;;;;;;1032214;28;20484;-63
2024/01/10 00:34:03;;;;;;;85.32;34.25;;;;;;;;;;1031014;28;20487;-63
2024/01/10 00:34:34;;;;;;;89.50;35.55;;;;;;;;;;1031919;28;20053;-62
2024/01/10 00:35:05;;;;;;;97.45;34.58;;;;;;;;;;1031661;28;20394;-62
2024/01/10 00:35:35;;;;;;;82.72;32.70;;;;;;;;;;1030663;28;20124;-62
2024/01/10 00:36:07;;;;;;;86.55;35.10;;;;;;;;;;1033379;28;20415;-63
2024/01/10 00:36:37;;;;;;;86.57;32.65;;;;;;;;;;1034151;28;20077;-62
2024/01/10 00:37:08;;;;;;;94.85;34.97;;;;;;;;;;1033994;28;20053;-62
2024/01/10 00:37:38;;;;;;;90.97;35.38;;;;;;;;;;1033642;28;20058;-63
2024/01/10 00:38:09;;;;;;;81.97;33.08;;;;;;;;;;1034293;28;20054;-63
2024/01/10 00:38:39;;;;;;;87.05;34.92;;;;;;;;;;1034314;28;20504;-63
2024/01/10 00:39:10;;;;;;;92.03;35.65;;;;;;;;;;1033466;28;20402;-63
2024/01/10 00:39:40;;;;;;;86.53;34.40;;;;;;;;;;1034066;28;20041;-62
2024/01/10 00:40:11;;;;;;;86.50;34.17;;;;;;;;;;1034044;28;20100;-63
2024/01/10 00:40:42;;;;;;;86.20;33.10;;;;;;;;;;1034166;28;20049;-62
2024/01/10 00:41:12;;;;;;;89.03;34.75;;;;;;;;;;1033791;28;20041;-63
2024/01/10 00:41:43;;;;;;;99.95;35.60;;;;;;;;;;1033904;28;20103;-63
2024/01/10 00:42:13;;;;;;;84.10;33.83;;;;;;;;;;1033552;28;20049;-62
2024/01/10 00:42:44;;;;;;;84.68;32.88;;;;;;;;;;1034549;28;20050;-63
2024/01/10 00:43:14;;;;;;;82.68;32.13;;;;;;;;;;1032856;28;20471;-62
2024/01/10 00:43:45;;;;;;;95.60;33.70;;;;;;;;;;1033700;28;20061;-62
2024/01/10 00:44:15;;;;;;;87.35;34.30;;;;;;;;;;1034145;28;20049;-62
2024/01/10 00:44:46;;;;;;;85.47;33.35;;;;;;;;;;1033805;28;20478;-62
2024/01/10 00:45:16;;;;;;;81.47;32.92;;;;;;;;;;1033755;28;20557;-62
2024/01/10 00:45:47;;;;;;;86.38;32.67;;;;;;;;;;1032834;28;20057;-61
2024/01/10 00:46:18;;;;;;;83.68;31.80;;;;;;;;;;1033378;28;20061;-63
2024/01/10 00:46:48;;;;;;;81.97;29.92;;;;;;;;;;1034017;28;20046;-63
2024/01/10 00:47:19;;;;;;;95.10;32.83;;;;;;;;;;1034544;28;20046;-62
2024/01/10 00:47:49;;;;;;;100.60;34.05;;;;;;;;;;1033509;28;20057;-62
2024/01/10 00:48:20;;;;;;;89.10;32.85;;;;;;;;;;1034273;28;20120;-63
2024/01/10 00:48:50;;;;;;;96.03;32.78;;;;;;;;;;1033674;28;20046;-62
2024/01/10 00:49:21;;;;;;;80.03;32.30;;;;;;;;;;1033816;28;20061;-62
2024/01/10 00:49:51;;;;;;;81.35;32.75;;;;;;;;;;1033432;28;20394;-65
2024/01/10 00:50:22;;;;;;;77.45;30.88;;;;;;;;;;1034847;28;20042;-63
2024/01/10 00:50:52;;;;;;;79.20;31.63;;;;;;;;;;1032373;28;20485;-62
2024/01/10 00:51:23;;;;;;;78.78;30.10;;;;;;;;;;1033598;28;20136;-62
2024/01/10 00:51:53;;;;;;;92.07;33.03;;;;;;;;;;1033387;28;20073;-63
2024/01/10 00:52:24;;;;;;;78.07;30.88;;;;;;;;;;1033944;28;20049;-63
2024/01/10 00:52:55;;;;;;;83.13;31.75;;;;;;;;;;1033789;28;20060;-62
2024/01/10 00:53:25;;;;;;;77.93;30.90;;;;;;;;;;1034485;28;20139;-62
2024/01/10 00:53:56;;;;;;;87.45;30.98;;;;;;;;;;1032367;28;20108;-63
2024/01/10 00:54:26;;;;;;;78.18;31.38;;;;;;;;;;1031697;28;20074;-62
2024/01/10 00:54:57;;;;;;;83.00;32.90;;;;;;;;;;1034171;28;20093;-62
2024/01/10 00:55:27;;;;;;;88.97;34.05;;;;;;;;;;1033349;28;20047;-62
2024/01/10 00:55:58;;;;;;;81.65;30.92;;;;;;;;;;1034118;28;20056;-62
2024/01/10 00:56:29;;;;;;;81.07;32.35;;;;;;;;;;1033994;28;20081;-63
2024/01/10 00:56:59;;;;;;;82.97;30.88;;;;;;;;;;1034220;28;20054;-63
2024/01/10 00:57:29;;;;;;;77.50;31.65;;;;;;;;;;1034381;28;20080;-63
2024/01/10 00:58:00;;;;;;;83.13;31.85;;;;;;;;;;1032297;28;20042;-62
2024/01/10 00:58:30;;;;;;;68.18;30.65;;;;;;;;;;1034164;28;20057;-62
2024/01/10 00:59:01;;;;;;;87.18;32.03;;;;;;;;;;1034163;28;20099;-63
2024/01/10 00:59:31;;;;;;;80.75;33.05;;;;;;;;;;1034519;28;20120;-62
2024/01/10 01:00:03;;;;;;;78.50;32.08;;;;;;;;;;1033040;28;20069;-63
2024/01/10 01:00:34;;;;;;;73.05;30.48;;;;;;;;;;1034861;28;20514;-62
2024/01/10 01:01:04;;;;;;;77.25;31.75;;;;;;;;;;1033086;28;20486;-62
2024/01/10 01:01:35;;;;;;;88.82;33.53;;;;;;;;;;1034033;28;20171;-62
2024/01/10 01:02:05;;;;;;;80.55;31.95;;;;;;;;;;1032849;28;20407;-63
2024/01/10 01:02:36;;;;;;;76.53;31.35;;;;;;;;;;1033512;28;20056;-63
2024/01/10 01:03:07;;;;;;;75.32;30.90;;;;;;;;;;1037248;28;20123;-63
2024/01/10 01:03:38;;;;;;;88.30;32.67;;;;;;;;;;1038533;28;20124;-62
2024/01/10 01:04:08;;;;;;;76.05;30.95;;;;;;;;;;1036429;28;20748;-62
2024/01/10 01:04:39;;;;;;;81.95;30.55;;;;;;;;;;1033164;28;20049;-62
2024/01/10 01:05:09;;;;;;;82.63;31.88;;;;;;;;;;1037222;28;20052;-63
2024/01/10 01:05:40;;;;;;;72.68;30.77;;;;;;;;;;1037713;28;20053;-62
2024/01/10 01:06:11;;;;;;;81.68;32.08;;;;;;;;;;1038030;28;20045;-62
2024/01/10 01:06:42;;;;;;;75.88;33.50;;;;;;;;;;1036954;28;21180;-62
2024/01/10 01:07:13;;;;;;;82.40;32.63;;;;;;;;;;1038604;28;20083;-62
2024/01/10 01:07:43;;;;;;;78.47;31.38;;;;;;;;;;1037491;28;20049;-63
2024/01/10 01:08:14;;;;;;;76.07;30.70;;;;;;;;;;1038179;28;20118;-62
2024/01/10 01:08:44;;;;;;;80.40;31.85;;;;;;;;;;1037782;28;20049;-63
2024/01/10 01:09:15;;;;;;;76.35;30.80;;;;;;;;;;1037883;28;20103;-63
2024/01/10 01:09:45;;;;;;;79.65;32.42;;;;;;;;;;1037556;28;20051;-63
2024/01/10 01:10:16;;;;;;;82.63;31.83;;;;;;;;;;1038316;28;20053;-62
2024/01/10 01:10:47;;;;;;;90.82;33.70;;;;;;;;;;1037421;28;20443;-63
2024/01/10 01:11:17;;;;;;;82.50;31.85;;;;;;;;;;1037082;28;20045;-62
2024/01/10 01:11:47;;;;;;;78.97;31.90;;;;;;;;;;1037671;28;20045;-63
2024/01/10 01:12:18;;;;;;;80.68;32.78;;;;;;;;;;1038485;28;20053;-62
2024/01/10 01:12:49;;;;;;;81.15;32.08;;;;;;;;;;1037832;28;20131;-62
2024/01/10 01:13:19;;;;;;;83.32;32.90;;;;;;;;;;1037498;28;20072;-62
2024/01/10 01:13:50;;;;;;;84.78;32.33;;;;;;;;;;1037478;28;20048;-62
2024/01/10 01:14:20;;;;;;;75.80;32.50;;;;;;;;;;1038160;28;20413;-62
2024/01/10 01:14:51;;;;;;;89.22;32.83;;;;;;;;;;1038133;28;20413;-62
2024/01/10 01:15:21;;;;;;;84.68;31.15;;;;;;;;;;1036335;28;20121;-63
2024/01/10 01:15:52;;;;;;;73.38;30.17;;;;;;;;;;1036818;28;20112;-62
2024/01/10 01:16:23;;;;;;;75.68;31.67;;;;;;;;;;1038285;28;20049;-62
2024/01/10 01:16:53;;;;;;;86.38;31.45;;;;;;;;;;1037813;28;20057;-62
2024/01/10 01:17:24;;;;;;;80.38;31.23;;;;;;;;;;1036438;28;20053;-63
2024/01/10 01:17:54;;;;;;;82.38;31.48;;;;;;;;;;1036038;28;20696;-63
2024/01/10 01:18:25;;;;;;;85.93;31.70;;;;;;;;;;1035965;28;20049;-62
2024/01/10 01:18:56;;;;;;;79.00;31.05;;;;;;;;;;1036082;28;20096;-62
2024/01/10 01:19:26;;;;;;;77.00;29.25;;;;;;;;;;1037964;28;20132;-63
2024/01/10 01:19:57;;;;;;;77.32;28.67;;;;;;;;;;1037379;28;20473;-62
2024/01/10 01:20:27;;;;;;;69.93;29.25;;;;;;;;;;1037347;28;20398;-62
2024/01/10 01:20:58;;;;;;;79.75;30.58;;;;;;;;;;1037296;28;20424;-62
2024/01/10 01:21:28;;;;;;;71.57;28.85;;;;;;;;;;1038213;28;20577;-63
2024/01/10 01:21:59;;;;;;;73.75;28.35;;;;;;;;;;1037298;28;20075;-63
2024/01/10 01:22:30;;;;;;;76.60;28.23;;;;;;;;;;1038080;28;20136;-63
2024/01/10 01:23:00;;;;;;;76.13;29.45;;;;;;;;;;1038038;28;20382;-62
2024/01/10 01:23:31;;;;;;;77.88;29.48;;;;;;;;;;1035454;28;20509;-62
2024/01/10 01:24:01;;;;;;;69.35;28.92;;;;;;;;;;1038555;28;20046;-62
2024/01/10 01:24:32;;;;;;;86.40;29.48;;;;;;;;;;1037811;28;20046;-62
2024/01/10 01:25:03;;;;;;;68.07;30.25;;;;;;;;;;1037943;28;20044;-62
2024/01/10 01:25:33;;;;;;;71.43;30.10;;;;;;;;;;1037163;28;20041;-62
2024/01/10 01:26:04;;;;;;;74.57;27.90;;;;;;;;;;1037612;28;20098;-63
2024/01/10 01:26:35;;;;;;;73.25;27.70;;;;;;;;;;1036965;28;20042;-63
2024/01/10 01:27:05;;;;;;;62.13;27.90;;;;;;;;;;1036473;28;20051;-63
2024/01/10 01:27:36;;;;;;;69.68;26.25;;;;;;;;;;1035406;28;20140;-62
2024/01/10 01:28:06;;;;;;;65.38;25.65;;;;;;;;;;1034677;28;20064;-62
2024/01/10 01:28:37;;;;;;;67.70;28.13;;;;;;;;;;1035523;28;20060;-63
2024/01/10 01:29:08;;;;;;;71.18;27.35;;;;;;;;;;1036021;28;20690;-63
2024/01/10 01:29:39;;;;;;;60.78;24.70;;;;;;;;;;1037970;28;20061;-62
2024/01/10 01:30:11;;;;;;;65.82;27.42;;;;;;;;;;1033234;28;20081;-63
2024/01/10 01:30:41;;;;;;;64.85;27.58;;;;;;;;;;1034814;28;20087;-62
2024/01/10 01:31:12;;;;;;;64.07;24.90;;;;;;;;;;1033996;28;20046;-62
2024/01/10 01:31:42;;;;;;;67.88;27.30;;;;;;;;;;1034099;28;20045;-62
2024/01/10 01:32:13;;;;;;;61.95;24.52;;;;;;;;;;1034811;28;20041;-62
2024/01/10 01:32:43;;;;;;;65.68;26.35;;;;;;;;;;1033939;28;20049;-64
2024/01/10 01:33:14;;;;;;;67.75;25.33;;;;;;;;;;1034408;28;20072;-62
2024/01/10 01:33:45;;;;;;;65.70;25.70;;;;;;;;;;1033581;28;20058;-64
2024/01/10 01:34:16;;;;;;;60.78;24.65;;;;;;;;;;1031135;28;20118;-63
2024/01/10 01:34:46;;;;;;;69.05;24.50;;;;;;;;;;1029587;28;20086;-62
2024/01/10 01:35:21;;;;;;;58.30;23.95;;;;;;;;;;1029444;28;20050;-63
2024/01/10 01:35:54;;;;;;;58.40;24.52;;;;;;;;;;1030679;28;20056;-63
2024/01/10 01:36:24;;;;;;;69.18;24.75;;;;;;;;;;1030416;28;20054;-62
2024/01/10 01:36:55;;;;;;;66.60;25.00;;;;;;;;;;1030502;28;20049;-62
2024/01/10 01:37:25;;;;;;;62.22;25.23;;;;;;;;;;1030281;28;20685;-62
2024/01/10 01:37:55;;;;;;;57.42;24.27;;;;;;;;;;1030272;28;20070;-62
2024/01/10 01:38:26;;;;;;;66.25;24.27;;;;;;;;;;1030123;28;20054;-62
2024/01/10 01:38:57;;;;;;;62.17;24.25;;;;;;;;;;1029925;28;20886;-62
2024/01/10 01:39:28;;;;;;;55.58;24.50;;;;;;;;;;1031288;28;20543;-63
2024/01/10 01:39:58;;;;;;;61.83;25.25;;;;;;;;;;1030189;28;20498;-62
2024/01/10 01:40:29;;;;;;;59.30;25.45;;;;;;;;;;1031417;28;20053;-62
2024/01/10 01:40:59;;;;;;;62.53;25.30;;;;;;;;;;1031023;28;20458;-63
2024/01/10 01:41:30;;;;;;;58.33;24.88;;;;;;;;;;1031494;28;20109;-63
2024/01/10 01:42:00;;;;;;;56.97;23.75;;;;;;;;;;1031349;28;20050;-62
2024/01/10 01:42:32;;;;;;;60.08;24.13;;;;;;;;;;1031351;28;20450;-62
2024/01/10 01:43:21;;;;;;;63.05;24.77;;;;;;;;;;1030471;28;20160;-62
2024/01/10 01:43:52;;;;;;;65.57;22.88;;;;;;;;;;1030556;28;20050;-63
2024/01/10 01:44:22;;;;;;;60.45;22.23;;;;;;;;;;1031437;28;20512;-62
2024/01/10 01:44:53;;;;;;;54.20;25.10;;;;;;;;;;1030666;28;20049;-63
2024/01/10 01:45:24;;;;;;;59.55;24.70;;;;;;;;;;1030922;28;20058;-63
2024/01/10 01:45:56;;;;;;;56.47;22.88;;;;;;;;;;1033293;28;20426;-63
2024/01/10 01:46:27;;;;;;;55.78;23.90;;;;;;;;;;1030317;28;20061;-62
2024/01/10 01:46:58;;;;;;;58.53;24.13;;;;;;;;;;1029775;28;20046;-63
2024/01/10 01:47:28;;;;;;;62.75;23.42;;;;;;;;;;1031075;28;20057;-62
2024/01/10 01:47:59;;;;;;;53.25;23.38;;;;;;;;;;1030242;28;20057;-63
2024/01/10 01:48:30;;;;;;;70.03;25.48;;;;;;;;;;1030988;28;20050;-63
2024/01/10 01:49:00;;;;;;;53.03;22.52;;;;;;;;;;1030751;28;20054;-62
2024/01/10 01:49:30;;;;;;;46.78;21.33;;;;;;;;;;1030601;28;20050;-63
2024/01/10 01:50:02;;;;;;;63.85;22.88;;;;;;;;;;1030533;28;20057;-63
2024/01/10 01:50:33;;;;;;;55.58;23.77;;;;;;;;;;1030511;28;20750;-63
2024/01/10 01:51:08;;;;;;;55.75;23.25;;;;;;;;;;1030938;28;20880;-63
2024/01/10 01:51:39;;;;;;;53.60;22.98;;;;;;;;;;1030800;28;20037;-62
2024/01/10 01:52:10;;;;;;;53.22;21.83;;;;;;;;;;1032126;28;20057;-62
2024/01/10 01:52:41;;;;;;;51.58;22.23;;;;;;;;;;1031432;28;20050;-63
2024/01/10 01:53:13;;;;;;;51.47;23.08;;;;;;;;;;1032387;28;20054;-63
2024/01/10 01:53:45;;;;;;;61.08;23.38;;;;;;;;;;1031228;28;20065;-63
2024/01/10 01:54:16;;;;;;;51.92;21.90;;;;;;;;;;1033206;28;21832;-62
2024/01/10 01:54:47;;;;;;;53.00;21.38;;;;;;;;;;1032388;28;20053;-61
2024/01/10 01:55:17;;;;;;;50.53;19.58;;;;;;;;;;1031748;28;20049;-62
2024/01/10 01:55:48;;;;;;;63.00;23.23;;;;;;;;;;1032584;28;20140;-63
2024/01/10 01:56:19;;;;;;;53.42;22.77;;;;;;;;;;1033096;28;20049;-62
2024/01/10 01:56:50;;;;;;;54.15;21.95;;;;;;;;;;1031073;28;20576;-63
2024/01/10 01:57:21;;;;;;;49.10;20.60;;;;;;;;;;1031848;28;20081;-62
2024/01/10 01:57:51;;;;;;;53.50;21.92;;;;;;;;;;1032199;28;20052;-63
2024/01/10 01:58:22;;;;;;;56.30;20.73;;;;;;;;;;1030816;28;20046;-62
2024/01/10 01:58:54;;;;;;;55.42;22.77;;;;;;;;;;1031219;28;20051;-63
2024/01/10 01:59:24;;;;;;;60.92;22.02;;;;;;;;;;1029690;28;20046;-66
2024/01/10 01:59:55;;;;;;;51.40;22.38;;;;;;;;;;1031352;28;20156;-62
2024/01/10 02:00:25;;;;;;;51.45;23.08;;;;;;;;;;1031550;28;20046;-62
2024/01/10 02:00:56;;;;;;;54.13;23.05;;;;;;;;;;1030535;28;20646;-63
2024/01/10 02:01:26;;;;;;;58.42;22.23;;;;;;;;;;1031515;28;20050;-61
2024/01/10 02:02:01;;;;;;;57.72;22.15;;;;;;;;;;1030560;28;20049;-62
2024/01/10 02:02:32;;;;;;;51.78;21.15;;;;;;;;;;1031381;28;20054;-62
2024/01/10 02:03:05;;;;;;;55.97;21.77;;;;;;;;;;1031069;28;20054;-63
2024/01/10 02:03:35;;;;;;;53.92;22.88;;;;;;;;;;1032098;28;20050;-63
2024/01/10 02:04:06;;;;;;;56.15;21.85;;;;;;;;;;1029875;28;20120;-63
2024/01/10 02:04:37;;;;;;;51.83;21.40;;;;;;;;;;1031420;28;20084;-63
2024/01/10 02:05:08;;;;;;;52.90;22.30;;;;;;;;;;1029387;28;20092;-63
2024/01/10 02:05:39;;;;;;;52.28;21.63;;;;;;;;;;1030519;28;21929;-62
2024/01/10 02:06:10;;;;;;;58.85;23.45;;;;;;;;;;1030759;28;21092;-63
2024/01/10 02:06:41;;;;;;;60.00;22.83;;;;;;;;;;1031279;28;20054;-63
2024/01/10 02:07:12;;;;;;;61.88;22.77;;;;;;;;;;1031329;28;20058;-63
2024/01/10 02:07:42;;;;;;;55.13;22.20;;;;;;;;;;1030864;28;20163;-63
2024/01/10 02:08:13;;;;;;;53.30;20.30;;;;;;;;;;1029789;28;20435;-62
2024/01/10 02:08:44;;;;;;;59.22;23.65;;;;;;;;;;1029297;28;20050;-63
2024/01/10 02:09:15;;;;;;;52.17;20.80;;;;;;;;;;1030939;28;20058;-63
2024/01/10 02:09:46;;;;;;;54.63;22.67;;;;;;;;;;1029513;28;20050;-63
2024/01/10 02:10:16;;;;;;;55.72;23.02;;;;;;;;;;1031512;28;20046;-63
2024/01/10 02:10:47;;;;;;;45.63;20.85;;;;;;;;;;1029832;28;20054;-63
2024/01/10 02:11:17;;;;;;;50.47;21.98;;;;;;;;;;1030974;28;20513;-63
2024/01/10 02:11:48;;;;;;;51.75;21.38;;;;;;;;;;1029219;28;20497;-63
2024/01/10 02:12:19;;;;;;;59.28;21.83;;;;;;;;;;1031298;28;20638;-62
2024/01/10 02:12:50;;;;;;;53.60;23.15;;;;;;;;;;1030193;28;20119;-63
2024/01/10 02:13:20;;;;;;;54.45;21.33;;;;;;;;;;1032318;28;20049;-62
2024/01/10 02:13:54;;;;;;;53.65;21.15;;;;;;;;;;1029958;28;20057;-62
2024/01/10 02:14:24;;;;;;;60.47;21.98;;;;;;;;;;1030250;28;20050;-62
2024/01/10 02:14:55;;;;;;;50.90;20.95;;;;;;;;;;1029884;28;20057;-63
2024/01/10 02:15:26;;;;;;;58.05;22.65;;;;;;;;;;1030989;28;20604;-63
2024/01/10 02:15:57;;;;;;;55.75;23.17;;;;;;;;;;1033486;28;20076;-63
2024/01/10 02:16:28;;;;;;;52.95;21.92;;;;;;;;;;1033248;28;20049;-62
2024/01/10 02:16:58;;;;;;;63.50;22.42;;;;;;;;;;1031164;28;20411;-61
2024/01/10 02:17:28;;;;;;;58.88;23.25;;;;;;;;;;1031928;28;20861;-63
2024/01/10 02:17:59;;;;;;;61.13;22.15;;;;;;;;;;1031030;28;20069;-62
2024/01/10 02:18:29;;;;;;;51.45;22.13;;;;;;;;;;1032570;28;20050;-63
2024/01/10 02:19:01;;;;;;;59.30;22.15;;;;;;;;;;1032089;28;20057;-63
2024/01/10 02:19:32;;;;;;;58.55;23.13;;;;;;;;;;1032143;28;20049;-63
2024/01/10 02:20:16;;;;;;;55.97;22.80;;;;;;;;;;1032031;28;20073;-62
2024/01/10 02:20:47;;;;;;;55.78;21.38;;;;;;;;;;1031592;28;20069;-63
2024/01/10 02:21:23;;;;;;;51.85;21.17;;;;;;;;;;1032114;28;20206;-63
2024/01/10 02:21:55;;;;;;;50.20;21.67;;;;;;;;;;1032415;28;20054;-63
2024/01/10 02:22:26;;;;;;;56.92;22.08;;;;;;;;;;1032636;28;20088;-62
2024/01/10 02:22:56;;;;;;;58.47;22.17;;;;;;;;;;1032771;28;20101;-62
2024/01/10 02:23:27;;;;;;;58.25;23.67;;;;;;;;;;1032205;28;20068;-63
2024/01/10 02:23:58;;;;;;;66.90;22.27;;;;;;;;;;1031909;28;20046;-62
2024/01/10 02:24:28;;;;;;;49.38;22.27;;;;;;;;;;1033991;28;20062;-62
2024/01/10 02:24:59;;;;;;;56.03;21.25;;;;;;;;;;1034244;28;20056;-62
2024/01/10 02:25:29;;;;;;;52.00;24.00;;;;;;;;;;1034667;28;20375;-63
2024/01/10 02:26:00;;;;;;;59.10;24.45;;;;;;;;;;1035163;28;20081;-63
2024/01/10 02:26:31;;;;;;;60.08;23.08;;;;;;;;;;1035625;28;20609;-63
2024/01/10 02:27:01;;;;;;;55.03;24.00;;;;;;;;;;1038475;28;20086;-63
2024/01/10 02:27:34;;;;;;;58.58;23.92;;;;;;;;;;1037232;28;20092;-63
2024/01/10 02:28:04;;;;;;;52.72;23.50;;;;;;;;;;1037439;28;20127;-63
2024/01/10 02:28:35;;;;;;;59.60;23.83;;;;;;;;;;1037981;28;20143;-62
2024/01/10 02:29:05;;;;;;;63.22;23.45;;;;;;;;;;1031945;28;20060;-62
2024/01/10 02:29:36;;;;;;;57.58;23.55;;;;;;;;;;1033290;28;20659;-63
2024/01/10 02:30:08;;;;;;;59.05;23.27;;;;;;;;;;1033579;28;20054;-63
2024/01/10 02:30:39;;;;;;;52.95;21.67;;;;;;;;;;1031283;28;20049;-63
2024/01/10 02:31:09;;;;;;;59.55;22.40;;;;;;;;;;1031464;28;20089;-63
2024/01/10 02:31:40;;;;;;;61.95;22.90;;;;;;;;;;1031625;28;20054;-63
2024/01/10 02:32:10;;;;;;;60.80;23.63;;;;;;;;;;1031569;28;20123;-63
2024/01/10 02:32:41;;;;;;;58.55;22.33;;;;;;;;;;1031378;28;20524;-62
2024/01/10 02:33:11;;;;;;;62.33;24.90;;;;;;;;;;1032320;28;20053;-63
2024/01/10 02:33:42;;;;;;;57.65;22.15;;;;;;;;;;1032036;28;20046;-62
2024/01/10 02:34:12;;;;;;;60.83;23.63;;;;;;;;;;1030942;28;20046;-63
2024/01/10 02:34:43;;;;;;;59.90;23.42;;;;;;;;;;1030819;28;20042;-62
2024/01/10 02:35:13;;;;;;;59.65;23.75;;;;;;;;;;1032971;28;20844;-62
2024/01/10 02:35:44;;;;;;;58.15;24.15;;;;;;;;;;1032412;28;20066;-62
2024/01/10 02:36:14;;;;;;;68.80;24.60;;;;;;;;;;1033597;28;20153;-62
2024/01/10 02:36:45;;;;;;;58.35;25.65;;;;;;;;;;1030391;28;20536;-62
2024/01/10 02:37:15;;;;;;;65.60;24.30;;;;;;;;;;1032340;28;20049;-62
2024/01/10 02:37:46;;;;;;;56.50;23.98;;;;;;;;;;1031732;28;20068;-62
2024/01/10 02:38:20;;;;;;;57.40;23.35;;;;;;;;;;1032072;28;20465;-63
2024/01/10 02:38:51;;;;;;;60.10;25.23;;;;;;;;;;1031789;28;20049;-62
2024/01/10 02:39:21;;;;;;;57.05;23.60;;;;;;;;;;1031313;28;20380;-62
2024/01/10 02:39:52;;;;;;;50.65;22.73;;;;;;;;;;1031323;28;20049;-63
2024/01/10 02:40:22;;;;;;;56.85;24.33;;;;;;;;;;1032667;28;20050;-63
2024/01/10 02:40:53;;;;;;;64.32;24.63;;;;;;;;;;1031424;28;20885;-63
2024/01/10 02:41:24;;;;;;;56.42;23.88;;;;;;;;;;1032551;28;20084;-62
2024/01/10 02:41:54;;;;;;;59.90;24.17;;;;;;;;;;1031703;28;20214;-62
2024/01/10 02:42:27;;;;;;;56.40;23.00;;;;;;;;;;1032018;28;20046;-63
2024/01/10 02:42:58;;;;;;;61.17;24.80;;;;;;;;;;1031305;28;20517;-63
2024/01/10 02:43:28;;;;;;;59.67;25.50;;;;;;;;;;1032148;28;21246;-63
2024/01/10 02:43:59;;;;;;;58.33;25.15;;;;;;;;;;1033330;28;20058;-63
2024/01/10 02:44:29;;;;;;;58.78;25.70;;;;;;;;;;1032166;28;20041;-62
2024/01/10 02:45:00;;;;;;;58.90;24.35;;;;;;;;;;1031563;28;20046;-62
2024/01/10 02:45:31;;;;;;;59.33;25.67;;;;;;;;;;1031299;28;20050;-62
2024/01/10 02:46:01;;;;;;;63.88;26.42;;;;;;;;;;1032036;28;20054;-62
2024/01/10 02:46:32;;;;;;;62.20;25.38;;;;;;;;;;1032116;28;20494;-62
2024/01/10 02:47:02;;;;;;;62.30;26.05;;;;;;;;;;1031618;28;20054;-63
2024/01/10 02:47:33;;;;;;;62.42;24.75;;;;;;;;;;1032126;28;20054;-63
2024/01/10 02:48:03;;;;;;;73.72;25.63;;;;;;;;;;1031394;28;20176;-63
2024/01/10 02:48:34;;;;;;;59.88;24.73;;;;;;;;;;1032189;28;20054;-63
2024/01/10 02:49:05;;;;;;;71.90;26.38;;;;;;;;;;1031895;28;20501;-63
2024/01/10 02:49:35;;;;;;;73.60;26.23;;;;;;;;;;1031685;28;20065;-62
2024/01/10 02:50:06;;;;;;;66.50;24.60;;;;;;;;;;1031949;28;20085;-63
2024/01/10 02:50:38;;;;;;;67.07;26.20;;;;;;;;;;1031780;28;20054;-62
2024/01/10 02:51:09;;;;;;;72.22;26.45;;;;;;;;;;1032109;28;20049;-63
2024/01/10 02:51:39;;;;;;;68.63;28.08;;;;;;;;;;1032379;28;20084;-63
2024/01/10 02:52:10;;;;;;;65.53;26.52;;;;;;;;;;1031651;28;20128;-63
2024/01/10 02:52:40;;;;;;;62.65;25.23;;;;;;;;;;1032084;28;20061;-63
2024/01/10 02:53:11;;;;;;;62.60;25.52;;;;;;;;;;1031708;28;20165;-63
2024/01/10 02:53:41;;;;;;;72.60;28.73;;;;;;;;;;1031461;28;20049;-62
2024/01/10 02:54:12;;;;;;;62.45;25.15;;;;;;;;;;1033272;28;20730;-62
2024/01/10 02:54:42;;;;;;;62.47;24.42;;;;;;;;;;1032604;28;20049;-63
2024/01/10 02:55:13;;;;;;;65.75;25.95;;;;;;;;;;1033181;28;20045;-63
2024/01/10 02:55:44;;;;;;;68.55;27.13;;;;;;;;;;1034307;28;20042;-63
2024/01/10 02:56:16;;;;;;;62.17;26.77;;;;;;;;;;1032925;28;20525;-64
2024/01/10 02:56:46;;;;;;;71.93;30.45;;;;;;;;;;1033929;28;20695;-63
2024/01/10 02:57:17;;;;;;;66.95;26.55;;;;;;;;;;1031957;28;20494;-63
2024/01/10 02:57:47;;;;;;;70.82;27.83;;;;;;;;;;1032049;28;20064;-63
2024/01/10 02:58:18;;;;;;;66.18;26.48;;;;;;;;;;1030755;28;21323;-62
2024/01/10 02:58:49;;;;;;;65.07;24.80;;;;;;;;;;1031443;28;20053;-63
2024/01/10 02:59:19;;;;;;;67.82;28.92;;;;;;;;;;1033238;28;20418;-62
2024/01/10 02:59:50;;;;;;;66.60;27.85;;;;;;;;;;1034113;28;20042;-62